sensor_id;sensor_type;location;lat;lon;timestamp;pressure;altitude;pressure_sealevel;temperature;humidity
13486;BME280;6815;59.336;17.998;2023-02-28T00:00:31;52258.84;;;-145.37;82.11
13486;BME280;6815;59.336;17.998;2023-02-28T00:02:57;52232.88;;;-145.37;82.17
13486;BME280;6815;59.336;17.998;2023-02-28T00:05:25;52242.88;;;-145.37;82.26
13486;BME280;6815;59.336;17.998;2023-02-28T00:07:51;52198.94;;;-145.37;82.09
13486;BME280;6815;59.336;17.998;2023-02-28T00:10:19;52244.84;;;-145.37;82.00
13486;BME280;6815;59.336;17.998;2023-02-28T00:12:47;52260.84;;;-145.37;82.07
13486;BME280;6815;59.336;17.998;2023-02-28T00:15:12;52256.84;;;-145.37;82.55
13486;BME280;6815;59.336;17.998;2023-02-28T00:17:38;52242.88;;;-145.37;82.39
13486;BME280;6815;59.336;17.998;2023-02-28T00:20:05;52212.91;;;-145.37;82.22
13486;BME280;6815;59.336;17.998;2023-02-28T00:22:35;52238.88;;;-145.37;82.15
13486;BME280;6815;59.336;17.998;2023-02-28T00:25:01;52304.75;;;-145.37;82.17
13486;BME280;6815;59.336;17.998;2023-02-28T00:27:27;52338.69;;;-145.37;82.24
13486;BME280;6815;59.336;17.998;2023-02-28T00:29:52;52256.84;;;-145.37;82.28
13486;BME280;6815;59.336;17.998;2023-02-28T00:32:19;52238.88;;;-145.37;82.23
13486;BME280;6815;59.336;17.998;2023-02-28T00:34:44;52268.81;;;-145.37;81.95
13486;BME280;6815;59.336;17.998;2023-02-28T00:37:10;52242.88;;;-145.37;81.75
13486;BME280;6815;59.336;17.998;2023-02-28T00:39:39;52250.84;;;-145.37;81.97
13486;BME280;6815;59.336;17.998;2023-02-28T00:42:06;52240.88;;;-145.37;82.53
13486;BME280;6815;59.336;17.998;2023-02-28T00:44:32;52186.97;;;-145.37;82.44
13486;BME280;6815;59.336;17.998;2023-02-28T00:46:58;52222.91;;;-145.37;82.47
13486;BME280;6815;59.336;17.998;2023-02-28T00:49:25;52234.88;;;-145.37;82.61
13486;BME280;6815;59.336;17.998;2023-02-28T00:51:51;52282.78;;;-145.37;82.53
13486;BME280;6815;59.336;17.998;2023-02-28T00:54:17;52222.91;;;-145.37;82.45
13486;BME280;6815;59.336;17.998;2023-02-28T00:56:42;52220.91;;;-145.37;82.30
13486;BME280;6815;59.336;17.998;2023-02-28T00:59:08;52252.84;;;-145.37;82.24
13486;BME280;6815;59.336;17.998;2023-02-28T01:01:33;52274.81;;;-145.37;82.47
13486;BME280;6815;59.336;17.998;2023-02-28T01:03:59;52296.75;;;-145.37;82.30
13486;BME280;6815;59.336;17.998;2023-02-28T01:06:24;52204.94;;;-145.37;82.53
13486;BME280;6815;59.336;17.998;2023-02-28T01:08:50;52224.91;;;-145.37;82.07
13486;BME280;6815;59.336;17.998;2023-02-28T01:11:18;52254.84;;;-145.37;82.36
13486;BME280;6815;59.336;17.998;2023-02-28T01:13:45;52264.81;;;-145.37;82.33
13486;BME280;6815;59.336;17.998;2023-02-28T01:16:11;52252.84;;;-145.37;82.53
13486;BME280;6815;59.336;17.998;2023-02-28T01:18:37;52276.81;;;-145.37;82.58
13486;BME280;6815;59.336;17.998;2023-02-28T01:21:07;52230.88;;;-145.37;82.64
13486;BME280;6815;59.336;17.998;2023-02-28T01:23:32;52250.84;;;-145.37;82.46
13486;BME280;6815;59.336;17.998;2023-02-28T01:26:13;52250.84;;;-145.37;82.45
13486;BME280;6815;59.336;17.998;2023-02-28T01:28:39;52284.78;;;-145.37;82.49
13486;BME280;6815;59.336;17.998;2023-02-28T01:31:06;52262.81;;;-145.37;82.63
13486;BME280;6815;59.336;17.998;2023-02-28T01:33:32;52268.81;;;-145.37;83.04
13486;BME280;6815;59.336;17.998;2023-02-28T01:36:04;52272.81;;;-145.37;82.91
13486;BME280;6815;59.336;17.998;2023-02-28T01:38:30;52270.81;;;-145.37;82.60
13486;BME280;6815;59.336;17.998;2023-02-28T01:40:56;52250.84;;;-145.37;82.66
13486;BME280;6815;59.336;17.998;2023-02-28T01:45:47;52288.78;;;-145.37;83.22
13486;BME280;6815;59.336;17.998;2023-02-28T01:48:12;52260.84;;;-145.37;82.98
13486;BME280;6815;59.336;17.998;2023-02-28T01:50:41;52270.81;;;-145.37;82.72
13486;BME280;6815;59.336;17.998;2023-02-28T01:53:11;52284.78;;;-145.37;82.75
13486;BME280;6815;59.336;17.998;2023-02-28T01:55:40;52230.88;;;-145.37;82.71
13486;BME280;6815;59.336;17.998;2023-02-28T01:58:06;52230.88;;;-145.37;82.83
13486;BME280;6815;59.336;17.998;2023-02-28T02:00:34;52256.84;;;-145.37;82.78
13486;BME280;6815;59.336;17.998;2023-02-28T02:03:06;52256.84;;;-145.37;82.39
13486;BME280;6815;59.336;17.998;2023-02-28T02:05:36;52266.81;;;-145.37;82.76
13486;BME280;6815;59.336;17.998;2023-02-28T02:08:09;52254.84;;;-145.37;82.95
13486;BME280;6815;59.336;17.998;2023-02-28T02:10:40;52264.81;;;-145.37;83.19
13486;BME280;6815;59.336;17.998;2023-02-28T02:37:16;52234.88;;;-145.37;83.55
13486;BME280;6815;59.336;17.998;2023-02-28T02:39:52;52238.88;;;-145.37;83.80
13486;BME280;6815;59.336;17.998;2023-02-28T02:45:22;52238.88;;;-145.37;83.68
13486;BME280;6815;59.336;17.998;2023-02-28T02:47:49;52238.88;;;-145.37;83.62
13486;BME280;6815;59.336;17.998;2023-02-28T02:50:24;52244.84;;;-145.37;83.50
13486;BME280;6815;59.336;17.998;2023-02-28T02:52:56;52234.88;;;-145.37;83.94
13486;BME280;6815;59.336;17.998;2023-02-28T02:55:23;52220.91;;;-145.37;84.25
13486;BME280;6815;59.336;17.998;2023-02-28T02:57:53;52252.84;;;-145.37;83.88
13486;BME280;6815;59.336;17.998;2023-02-28T03:00:24;52208.94;;;-145.37;84.19
13486;BME280;6815;59.336;17.998;2023-02-28T03:02:54;52262.81;;;-145.37;84.43
13486;BME280;6815;59.336;17.998;2023-02-28T03:05:27;52252.84;;;-145.37;84.55
13486;BME280;6815;59.336;17.998;2023-02-28T03:07:54;52262.81;;;-145.37;84.77
13486;BME280;6815;59.336;17.998;2023-02-28T03:10:33;52232.88;;;-145.37;84.83
13486;BME280;6815;59.336;17.998;2023-02-28T03:15:40;52236.88;;;-145.37;84.44
13486;BME280;6815;59.336;17.998;2023-02-28T03:18:16;52238.88;;;-145.37;84.12
13486;BME280;6815;59.336;17.998;2023-02-28T03:25:54;52254.84;;;-145.37;84.46
13486;BME280;6815;59.336;17.998;2023-02-28T03:28:45;52258.84;;;-145.37;84.90
13486;BME280;6815;59.336;17.998;2023-02-28T03:33:46;52234.88;;;-145.37;84.31
13486;BME280;6815;59.336;17.998;2023-02-28T03:36:22;52234.88;;;-145.37;84.44
13486;BME280;6815;59.336;17.998;2023-02-28T03:39:03;52196.94;;;-145.37;84.11
13486;BME280;6815;59.336;17.998;2023-02-28T03:41:36;52230.88;;;-145.37;84.62
13486;BME280;6815;59.336;17.998;2023-02-28T03:44:10;52244.84;;;-145.37;84.98
13486;BME280;6815;59.336;17.998;2023-02-28T03:46:44;52220.91;;;-145.37;85.10
13486;BME280;6815;59.336;17.998;2023-02-28T03:49:18;52220.91;;;-145.37;85.01
13486;BME280;6815;59.336;17.998;2023-02-28T03:51:48;52224.91;;;-145.37;84.90
13486;BME280;6815;59.336;17.998;2023-02-28T03:54:22;52244.84;;;-145.37;84.54
13486;BME280;6815;59.336;17.998;2023-02-28T03:57:18;52238.88;;;-145.37;84.67
13486;BME280;6815;59.336;17.998;2023-02-28T03:59:53;52256.84;;;-145.37;85.04
13486;BME280;6815;59.336;17.998;2023-02-28T04:02:19;52330.69;;;-145.37;85.22
13486;BME280;6815;59.336;17.998;2023-02-28T04:04:45;52218.91;;;-145.37;85.40
13486;BME280;6815;59.336;17.998;2023-02-28T04:07:14;52206.94;;;-145.37;85.01
13486;BME280;6815;59.336;17.998;2023-02-28T04:09:40;52266.81;;;-145.37;85.05
13486;BME280;6815;59.336;17.998;2023-02-28T04:12:06;52242.88;;;-145.37;85.15
13486;BME280;6815;59.336;17.998;2023-02-28T04:14:32;52228.88;;;-145.37;84.75
13486;BME280;6815;59.336;17.998;2023-02-28T04:16:57;52240.88;;;-145.37;84.69
13486;BME280;6815;59.336;17.998;2023-02-28T04:19:23;52228.88;;;-145.37;84.79
13486;BME280;6815;59.336;17.998;2023-02-28T04:21:53;52328.69;;;-145.37;85.05
13486;BME280;6815;59.336;17.998;2023-02-28T04:24:20;52232.88;;;-145.37;85.07
13486;BME280;6815;59.336;17.998;2023-02-28T04:26:49;52272.81;;;-145.37;85.57
13486;BME280;6815;59.336;17.998;2023-02-28T04:29:19;52220.91;;;-145.37;85.49
13486;BME280;6815;59.336;17.998;2023-02-28T04:31:45;52242.88;;;-145.37;85.38
13486;BME280;6815;59.336;17.998;2023-02-28T04:34:11;52198.94;;;-145.37;85.10
13486;BME280;6815;59.336;17.998;2023-02-28T04:36:36;52308.75;;;-145.37;84.86
13486;BME280;6815;59.336;17.998;2023-02-28T04:39:02;52272.81;;;-145.37;84.88
13486;BME280;6815;59.336;17.998;2023-02-28T04:41:29;52208.94;;;-145.37;85.22
13486;BME280;6815;59.336;17.998;2023-02-28T04:43:54;52232.88;;;-145.37;85.37
13486;BME280;6815;59.336;17.998;2023-02-28T04:46:21;52218.91;;;-145.37;85.26
13486;BME280;6815;59.336;17.998;2023-02-28T04:48:46;52256.84;;;-145.37;85.19
13486;BME280;6815;59.336;17.998;2023-02-28T04:51:14;52238.88;;;-145.37;85.28
13486;BME280;6815;59.336;17.998;2023-02-28T04:53:41;52268.81;;;-145.37;85.05
13486;BME280;6815;59.336;17.998;2023-02-28T04:56:08;52260.84;;;-145.37;85.76
13486;BME280;6815;59.336;17.998;2023-02-28T04:58:35;52224.91;;;-145.37;86.20
13486;BME280;6815;59.336;17.998;2023-02-28T05:01:05;52280.78;;;-145.37;85.85
13486;BME280;6815;59.336;17.998;2023-02-28T05:03:39;52214.91;;;-145.37;86.55
13486;BME280;6815;59.336;17.998;2023-02-28T05:06:08;52200.94;;;-145.37;86.93
13486;BME280;6815;59.336;17.998;2023-02-28T05:08:34;52242.88;;;-145.37;86.57
13486;BME280;6815;59.336;17.998;2023-02-28T05:11:00;52242.88;;;-145.37;87.40
13486;BME280;6815;59.336;17.998;2023-02-28T05:13:27;52240.88;;;-145.37;87.05
13486;BME280;6815;59.336;17.998;2023-02-28T05:15:53;52248.84;;;-145.37;86.45
13486;BME280;6815;59.336;17.998;2023-02-28T05:18:18;52242.88;;;-145.37;86.94
13486;BME280;6815;59.336;17.998;2023-02-28T05:20:44;52224.91;;;-145.37;87.03
13486;BME280;6815;59.336;17.998;2023-02-28T05:23:16;52246.84;;;-145.37;87.20
13486;BME280;6815;59.336;17.998;2023-02-28T05:25:42;52226.91;;;-145.37;86.60
13486;BME280;6815;59.336;17.998;2023-02-28T05:28:09;52222.91;;;-145.37;86.34
13486;BME280;6815;59.336;17.998;2023-02-28T05:30:35;52284.78;;;-145.37;86.72
13486;BME280;6815;59.336;17.998;2023-02-28T05:33:00;52252.84;;;-145.37;87.01
13486;BME280;6815;59.336;17.998;2023-02-28T05:35:26;52192.97;;;-145.37;86.46
13486;BME280;6815;59.336;17.998;2023-02-28T05:37:54;52258.84;;;-145.37;86.52
13486;BME280;6815;59.336;17.998;2023-02-28T05:40:19;52248.84;;;-145.37;86.49
13486;BME280;6815;59.336;17.998;2023-02-28T05:42:46;52204.94;;;-145.37;86.69
13486;BME280;6815;59.336;17.998;2023-02-28T05:45:12;52264.81;;;-145.37;86.71
13486;BME280;6815;59.336;17.998;2023-02-28T05:47:37;52204.94;;;-145.37;86.63
13486;BME280;6815;59.336;17.998;2023-02-28T05:50:04;52220.91;;;-145.37;87.03
13486;BME280;6815;59.336;17.998;2023-02-28T05:52:29;52294.75;;;-145.37;86.85
13486;BME280;6815;59.336;17.998;2023-02-28T05:54:55;52256.84;;;-145.37;86.25
13486;BME280;6815;59.336;17.998;2023-02-28T05:57:21;52242.88;;;-145.37;86.23
13486;BME280;6815;59.336;17.998;2023-02-28T05:59:46;52248.84;;;-145.37;86.30
13486;BME280;6815;59.336;17.998;2023-02-28T06:02:14;52238.88;;;-145.37;86.57
13486;BME280;6815;59.336;17.998;2023-02-28T06:04:40;52230.88;;;-145.37;86.46
13486;BME280;6815;59.336;17.998;2023-02-28T06:07:07;52208.94;;;-145.37;86.59
13486;BME280;6815;59.336;17.998;2023-02-28T06:09:32;52238.88;;;-145.37;87.65
13486;BME280;6815;59.336;17.998;2023-02-28T06:11:59;52248.84;;;-145.37;87.11
13486;BME280;6815;59.336;17.998;2023-02-28T06:14:24;52226.91;;;-145.37;87.18
13486;BME280;6815;59.336;17.998;2023-02-28T06:16:50;52228.88;;;-145.37;86.54
13486;BME280;6815;59.336;17.998;2023-02-28T06:19:15;52240.88;;;-145.37;86.55
13486;BME280;6815;59.336;17.998;2023-02-28T06:21:41;52246.84;;;-145.37;85.86
13486;BME280;6815;59.336;17.998;2023-02-28T06:24:07;52256.84;;;-145.37;85.79
13486;BME280;6815;59.336;17.998;2023-02-28T06:26:33;52254.84;;;-145.37;85.61
13486;BME280;6815;59.336;17.998;2023-02-28T06:28:58;52214.91;;;-145.37;85.64
13486;BME280;6815;59.336;17.998;2023-02-28T06:31:23;52258.84;;;-145.37;85.46
13486;BME280;6815;59.336;17.998;2023-02-28T06:33:51;52234.88;;;-145.37;85.55
13486;BME280;6815;59.336;17.998;2023-02-28T06:36:17;52254.84;;;-145.37;85.86
13486;BME280;6815;59.336;17.998;2023-02-28T06:38:43;52208.94;;;-145.37;85.51
13486;BME280;6815;59.336;17.998;2023-02-28T06:41:09;52212.91;;;-145.37;86.11
13486;BME280;6815;59.336;17.998;2023-02-28T06:43:40;52212.91;;;-145.37;85.69
13486;BME280;6815;59.336;17.998;2023-02-28T06:46:08;52244.84;;;-145.37;85.42
13486;BME280;6815;59.336;17.998;2023-02-28T06:48:35;52278.78;;;-145.37;85.53
13486;BME280;6815;59.336;17.998;2023-02-28T06:53:30;52274.81;;;-145.37;85.69
13486;BME280;6815;59.336;17.998;2023-02-28T06:55:56;52250.84;;;-145.37;85.60
13486;BME280;6815;59.336;17.998;2023-02-28T06:58:21;52228.88;;;-145.37;85.40
13486;BME280;6815;59.336;17.998;2023-02-28T07:00:51;52280.78;;;-145.37;85.58
13486;BME280;6815;59.336;17.998;2023-02-28T07:03:16;52242.88;;;-145.37;85.20
13486;BME280;6815;59.336;17.998;2023-02-28T07:05:43;52256.84;;;-145.37;85.58
13486;BME280;6815;59.336;17.998;2023-02-28T07:08:09;52252.84;;;-145.37;85.23
13486;BME280;6815;59.336;17.998;2023-02-28T07:10:37;52260.84;;;-145.37;85.08
13486;BME280;6815;59.336;17.998;2023-02-28T07:13:04;52276.81;;;-145.37;84.70
13486;BME280;6815;59.336;17.998;2023-02-28T07:15:29;52252.84;;;-145.37;84.78
13486;BME280;6815;59.336;17.998;2023-02-28T07:17:55;52264.81;;;-145.37;84.45
13486;BME280;6815;59.336;17.998;2023-02-28T07:20:21;52242.88;;;-145.37;83.94
13486;BME280;6815;59.336;17.998;2023-02-28T07:22:48;52228.88;;;-145.37;84.20
13486;BME280;6815;59.336;17.998;2023-02-28T07:25:20;52250.84;;;-145.37;83.87
13486;BME280;6815;59.336;17.998;2023-02-28T07:27:46;52246.84;;;-145.37;83.40
13486;BME280;6815;59.336;17.998;2023-02-28T07:30:12;52260.84;;;-145.37;83.54
13486;BME280;6815;59.336;17.998;2023-02-28T07:32:37;52276.81;;;-145.37;83.11
13486;BME280;6815;59.336;17.998;2023-02-28T07:35:03;52240.88;;;-145.37;83.07
13486;BME280;6815;59.336;17.998;2023-02-28T07:37:30;52208.94;;;-145.37;83.01
13486;BME280;6815;59.336;17.998;2023-02-28T07:39:57;52232.88;;;-145.37;82.84
13486;BME280;6815;59.336;17.998;2023-02-28T07:42:22;52208.94;;;-145.37;83.03
13486;BME280;6815;59.336;17.998;2023-02-28T07:44:48;52254.84;;;-145.37;83.09
13486;BME280;6815;59.336;17.998;2023-02-28T07:47:13;52194.94;;;-145.37;83.05
13486;BME280;6815;59.336;17.998;2023-02-28T07:49:39;52224.91;;;-145.37;82.91
13486;BME280;6815;59.336;17.998;2023-02-28T07:52:05;52246.84;;;-145.37;83.11
13486;BME280;6815;59.336;17.998;2023-02-28T07:54:32;52234.88;;;-145.37;83.27
13486;BME280;6815;59.336;17.998;2023-02-28T07:56:58;52222.91;;;-145.37;83.04
13486;BME280;6815;59.336;17.998;2023-02-28T07:59:23;52206.94;;;-145.37;82.96
13486;BME280;6815;59.336;17.998;2023-02-28T08:01:49;52222.91;;;-145.37;82.81
13486;BME280;6815;59.336;17.998;2023-02-28T08:04:17;52244.84;;;-145.37;82.57
13486;BME280;6815;59.336;17.998;2023-02-28T08:06:42;52242.88;;;-145.37;82.12
13486;BME280;6815;59.336;17.998;2023-02-28T08:09:07;52264.81;;;-145.37;82.15
13486;BME280;6815;59.336;17.998;2023-02-28T08:11:33;52248.84;;;-145.37;81.29
13486;BME280;6815;59.336;17.998;2023-02-28T08:13:58;52268.81;;;-145.37;80.93
13486;BME280;6815;59.336;17.998;2023-02-28T08:16:24;52292.78;;;-145.37;80.60
13486;BME280;6815;59.336;17.998;2023-02-28T08:18:52;52280.78;;;-145.37;80.58
13486;BME280;6815;59.336;17.998;2023-02-28T08:21:18;52254.84;;;-145.37;80.35
13486;BME280;6815;59.336;17.998;2023-02-28T08:23:49;52242.88;;;-145.37;80.55
13486;BME280;6815;59.336;17.998;2023-02-28T08:26:19;52248.84;;;-145.37;79.84
13486;BME280;6815;59.336;17.998;2023-02-28T08:28:45;52262.81;;;-145.37;79.34
13486;BME280;6815;59.336;17.998;2023-02-28T08:31:11;52284.78;;;-145.37;79.49
13486;BME280;6815;59.336;17.998;2023-02-28T08:33:39;52260.84;;;-145.37;79.49
13486;BME280;6815;59.336;17.998;2023-02-28T08:36:05;52266.81;;;-145.37;79.26
13486;BME280;6815;59.336;17.998;2023-02-28T08:38:31;52266.81;;;-145.37;79.10
13486;BME280;6815;59.336;17.998;2023-02-28T08:40:58;52258.84;;;-145.37;79.18
13486;BME280;6815;59.336;17.998;2023-02-28T08:43:24;52238.88;;;-145.37;78.48
13486;BME280;6815;59.336;17.998;2023-02-28T08:45:54;52248.84;;;-145.37;78.27
13486;BME280;6815;59.336;17.998;2023-02-28T08:48:25;52196.94;;;-145.37;78.04
13486;BME280;6815;59.336;17.998;2023-02-28T08:51:03;52274.81;;;-145.37;78.10
13486;BME280;6815;59.336;17.998;2023-02-28T08:53:29;52250.84;;;-145.37;77.71
13486;BME280;6815;59.336;17.998;2023-02-28T08:56:00;52286.78;;;-145.37;77.50
13486;BME280;6815;59.336;17.998;2023-02-28T08:58:26;52234.88;;;-145.37;77.65
13486;BME280;6815;59.336;17.998;2023-02-28T09:00:52;52264.81;;;-145.37;77.41
13486;BME280;6815;59.336;17.998;2023-02-28T09:03:18;52272.81;;;-145.37;77.20
13486;BME280;6815;59.336;17.998;2023-02-28T09:05:57;52264.81;;;-145.37;77.12
13486;BME280;6815;59.336;17.998;2023-02-28T09:08:24;52246.84;;;-145.37;76.78
13486;BME280;6815;59.336;17.998;2023-02-28T09:10:50;52248.84;;;-145.37;76.52
13486;BME280;6815;59.336;17.998;2023-02-28T09:13:17;52296.75;;;-145.37;76.65
13486;BME280;6815;59.336;17.998;2023-02-28T09:15:43;52258.84;;;-145.37;76.21
13486;BME280;6815;59.336;17.998;2023-02-28T09:18:08;52286.78;;;-145.37;75.82
13486;BME280;6815;59.336;17.998;2023-02-28T09:20:34;52268.81;;;-145.37;75.31
13486;BME280;6815;59.336;17.998;2023-02-28T09:23:02;52270.81;;;-145.37;75.26
13486;BME280;6815;59.336;17.998;2023-02-28T09:25:27;52240.88;;;-145.37;75.41
13486;BME280;6815;59.336;17.998;2023-02-28T09:27:52;52244.84;;;-145.37;75.29
13486;BME280;6815;59.336;17.998;2023-02-28T09:30:18;52266.81;;;-145.37;74.63
13486;BME280;6815;59.336;17.998;2023-02-28T09:32:43;52258.84;;;-145.37;74.54
13486;BME280;6815;59.336;17.998;2023-02-28T09:35:23;52276.81;;;-145.37;74.41
13486;BME280;6815;59.336;17.998;2023-02-28T09:37:50;52272.81;;;-145.37;74.64
13486;BME280;6815;59.336;17.998;2023-02-28T09:40:18;52264.81;;;-145.37;74.50
13486;BME280;6815;59.336;17.998;2023-02-28T09:42:49;52250.84;;;-145.37;73.84
13486;BME280;6815;59.336;17.998;2023-02-28T09:45:39;52256.84;;;-145.37;73.18
13486;BME280;6815;59.336;17.998;2023-02-28T09:48:11;52280.78;;;-145.37;73.47
13486;BME280;6815;59.336;17.998;2023-02-28T09:50:51;52228.88;;;-145.37;73.29
13486;BME280;6815;59.336;17.998;2023-02-28T09:53:30;52292.78;;;-145.37;72.73
13486;BME280;6815;59.336;17.998;2023-02-28T09:56:03;52282.78;;;-145.37;72.38
13486;BME280;6815;59.336;17.998;2023-02-28T10:07:10;52256.84;;;-145.37;71.73
13486;BME280;6815;59.336;17.998;2023-02-28T10:09:43;52240.88;;;-145.37;71.19
13486;BME280;6815;59.336;17.998;2023-02-28T10:12:11;52268.81;;;-145.37;71.11
13486;BME280;6815;59.336;17.998;2023-02-28T10:14:40;52264.81;;;-145.37;71.08
13486;BME280;6815;59.336;17.998;2023-02-28T10:17:17;52234.88;;;-145.37;70.69
13486;BME280;6815;59.336;17.998;2023-02-28T10:20:14;52294.75;;;-145.37;70.16
13486;BME280;6815;59.336;17.998;2023-02-28T10:22:55;52268.81;;;-145.37;70.39
13486;BME280;6815;59.336;17.998;2023-02-28T10:25:28;52216.91;;;-145.37;70.20
13486;BME280;6815;59.336;17.998;2023-02-28T10:28:12;52264.81;;;-145.37;69.84
13486;BME280;6815;59.336;17.998;2023-02-28T10:30:42;52348.66;;;-145.37;69.75
13486;BME280;6815;59.336;17.998;2023-02-28T10:33:18;52282.78;;;-145.37;69.05
13486;BME280;6815;59.336;17.998;2023-02-28T10:35:45;52278.78;;;-145.37;69.09
13486;BME280;6815;59.336;17.998;2023-02-28T10:38:40;52264.81;;;-145.37;69.64
13486;BME280;6815;59.336;17.998;2023-02-28T10:41:18;52264.81;;;-145.37;69.26
13486;BME280;6815;59.336;17.998;2023-02-28T10:43:52;52244.84;;;-145.37;69.21
13486;BME280;6815;59.336;17.998;2023-02-28T10:46:19;52330.69;;;-145.37;69.41
13486;BME280;6815;59.336;17.998;2023-02-28T10:49:17;52224.91;;;-145.37;69.41
13486;BME280;6815;59.336;17.998;2023-02-28T10:51:47;52264.81;;;-145.37;69.41
13486;BME280;6815;59.336;17.998;2023-02-28T10:54:35;52258.84;;;-145.37;69.21
13486;BME280;6815;59.336;17.998;2023-02-28T10:59:33;52234.88;;;-145.37;69.32
13486;BME280;6815;59.336;17.998;2023-02-28T11:01:58;52252.84;;;-145.37;69.13
13486;BME280;6815;59.336;17.998;2023-02-28T11:07:21;52266.81;;;-145.37;68.68
13486;BME280;6815;59.336;17.998;2023-02-28T11:09:49;52274.81;;;-145.37;68.74
13486;BME280;6815;59.336;17.998;2023-02-28T11:12:27;52260.84;;;-145.37;68.80
13486;BME280;6815;59.336;17.998;2023-02-28T11:15:00;52248.84;;;-145.37;68.36
13486;BME280;6815;59.336;17.998;2023-02-28T11:17:30;52228.88;;;-145.37;68.40
13486;BME280;6815;59.336;17.998;2023-02-28T11:19:58;52244.84;;;-145.37;67.92
13486;BME280;6815;59.336;17.998;2023-02-28T11:22:30;52284.78;;;-145.37;67.97
13486;BME280;6815;59.336;17.998;2023-02-28T11:25:00;52270.81;;;-145.37;67.54
13486;BME280;6815;59.336;17.998;2023-02-28T11:29:55;52306.75;;;-145.37;67.72
13486;BME280;6815;59.336;17.998;2023-02-28T11:32:23;52276.81;;;-145.37;67.47
13486;BME280;6815;59.336;17.998;2023-02-28T11:37:36;52258.84;;;-145.37;67.52
13486;BME280;6815;59.336;17.998;2023-02-28T11:40:08;52344.69;;;-145.37;67.37
13486;BME280;6815;59.336;17.998;2023-02-28T11:42:46;52240.88;;;-145.37;67.32
13486;BME280;6815;59.336;17.998;2023-02-28T11:48:54;52256.84;;;-145.37;67.12
13486;BME280;6815;59.336;17.998;2023-02-28T11:56:41;52228.88;;;-145.37;66.39
13486;BME280;6815;59.336;17.998;2023-02-28T11:59:47;52254.84;;;-145.37;66.90
13486;BME280;6815;59.336;17.998;2023-02-28T12:02:30;52262.81;;;-145.37;67.05
13486;BME280;6815;59.336;17.998;2023-02-28T12:10:44;52286.78;;;-145.37;66.57
13486;BME280;6815;59.336;17.998;2023-02-28T12:13:26;52262.81;;;-145.37;66.39
13486;BME280;6815;59.336;17.998;2023-02-28T12:27:14;52288.78;;;-145.37;65.88
13486;BME280;6815;59.336;17.998;2023-02-28T12:29:47;52266.81;;;-145.37;65.94
13486;BME280;6815;59.336;17.998;2023-02-28T12:32:20;52248.84;;;-145.37;65.84
13486;BME280;6815;59.336;17.998;2023-02-28T12:34:54;52256.84;;;-145.37;65.56
13486;BME280;6815;59.336;17.998;2023-02-28T12:40:14;52240.88;;;-145.37;65.56
13486;BME280;6815;59.336;17.998;2023-02-28T12:42:48;52282.78;;;-145.37;65.64
13486;BME280;6815;59.336;17.998;2023-02-28T12:45:40;52294.75;;;-145.37;65.74
13486;BME280;6815;59.336;17.998;2023-02-28T12:48:11;52260.84;;;-145.37;65.33
13486;BME280;6815;59.336;17.998;2023-02-28T12:50:40;52292.78;;;-145.37;65.75
13486;BME280;6815;59.336;17.998;2023-02-28T12:53:23;52368.63;;;-145.37;65.67
13486;BME280;6815;59.336;17.998;2023-02-28T12:56:02;52258.84;;;-145.37;65.42
13486;BME280;6815;59.336;17.998;2023-02-28T12:58:41;52306.75;;;-145.37;65.07
13486;BME280;6815;59.336;17.998;2023-02-28T13:09:28;52288.78;;;-145.37;64.68
13486;BME280;6815;59.336;17.998;2023-02-28T13:11:55;52288.78;;;-145.37;64.22
13486;BME280;6815;59.336;17.998;2023-02-28T13:14:37;52268.81;;;-145.37;64.67
13486;BME280;6815;59.336;17.998;2023-02-28T13:17:10;52280.78;;;-145.37;64.96
13486;BME280;6815;59.336;17.998;2023-02-28T13:24:55;52292.78;;;-145.37;64.11
13486;BME280;6815;59.336;17.998;2023-02-28T13:29:54;52262.81;;;-145.37;63.93
13486;BME280;6815;59.336;17.998;2023-02-28T13:32:29;52282.78;;;-145.37;64.29
13486;BME280;6815;59.336;17.998;2023-02-28T13:47:44;52290.78;;;-145.37;63.91
13486;BME280;6815;59.336;17.998;2023-02-28T13:50:34;52272.81;;;-145.37;63.85
13486;BME280;6815;59.336;17.998;2023-02-28T13:54:00;52276.81;;;-145.37;63.74
13486;BME280;6815;59.336;17.998;2023-02-28T13:58:50;52260.84;;;-145.37;63.95
13486;BME280;6815;59.336;17.998;2023-02-28T14:01:55;52252.84;;;-145.37;64.03
13486;BME280;6815;59.336;17.998;2023-02-28T14:07:03;52276.81;;;-145.37;64.26
13486;BME280;6815;59.336;17.998;2023-02-28T14:09:41;52344.69;;;-145.37;64.39
13486;BME280;6815;59.336;17.998;2023-02-28T14:18:00;52268.81;;;-145.37;64.39
13486;BME280;6815;59.336;17.998;2023-02-28T14:20:30;52276.81;;;-145.37;64.18
13486;BME280;6815;59.336;17.998;2023-02-28T14:23:18;52234.88;;;-145.37;64.16
13486;BME280;6815;59.336;17.998;2023-02-28T14:26:16;52288.78;;;-145.37;63.85
13486;BME280;6815;59.336;17.998;2023-02-28T14:31:34;52254.84;;;-145.37;63.96
13486;BME280;6815;59.336;17.998;2023-02-28T14:34:25;52296.75;;;-145.37;64.08
13486;BME280;6815;59.336;17.998;2023-02-28T14:36:53;52268.81;;;-145.37;63.94
13486;BME280;6815;59.336;17.998;2023-02-28T14:39:22;52244.84;;;-145.37;64.08
13486;BME280;6815;59.336;17.998;2023-02-28T14:41:49;52208.94;;;-145.37;64.27
13486;BME280;6815;59.336;17.998;2023-02-28T14:44:20;52252.84;;;-145.37;64.14
13486;BME280;6815;59.336;17.998;2023-02-28T14:46:49;52224.91;;;-145.37;64.27
13486;BME280;6815;59.336;17.998;2023-02-28T14:51:48;52266.81;;;-145.37;64.22
13486;BME280;6815;59.336;17.998;2023-02-28T14:54:15;52276.81;;;-145.37;64.31
13486;BME280;6815;59.336;17.998;2023-02-28T14:56:42;52260.84;;;-145.37;64.07
13486;BME280;6815;59.336;17.998;2023-02-28T14:59:37;52238.88;;;-145.37;64.06
13486;BME280;6815;59.336;17.998;2023-02-28T15:02:24;52266.81;;;-145.37;64.63
13486;BME280;6815;59.336;17.998;2023-02-28T15:07:47;52264.81;;;-145.37;64.34
13486;BME280;6815;59.336;17.998;2023-02-28T15:13:12;52250.84;;;-145.37;64.88
13486;BME280;6815;59.336;17.998;2023-02-28T15:15:47;52234.88;;;-145.37;64.78